Time;durP1;ratioP1;P1;durP2;ratioP2;P2;SDS_P1;SDS_P2;PMS_P1;PMS_P2;Temp;Humidity;BMP_temperature;BMP_pressure;BME280_temperature;BME280_humidity;BME280_pressure;Samples;Min_cycle;Max_cycle;Signal;HPM_P1;HPM_P2
2023/11/05 00:01:18;;;;;;;2.72;0.40;;;9.10;99.90;;;;;;4926386;28;20127;-81
2023/11/05 00:03:44;;;;;;;4.05;0.40;;;9.10;99.90;;;;;;4936436;28;20030;-83
2023/11/05 00:06:10;;;;;;;4.18;0.30;;;9.10;99.90;;;;;;4937230;28;20031;-86
2023/11/05 00:08:37;;;;;;;2.20;0.20;;;9.10;99.90;;;;;;4926960;28;20024;-84
2023/11/05 00:11:03;;;;;;;5.00;0.40;;;9.10;99.90;;;;;;4926099;29;20071;-82
2023/11/05 00:13:29;;;;;;;3.85;0.20;;;9.10;99.90;;;;;;4938244;28;20024;-86
2023/11/05 00:15:55;;;;;;;2.08;0.52;;;9.10;99.90;;;;;;4936650;28;20031;-86
2023/11/05 00:18:22;;;;;;;3.00;0.30;;;9.10;99.90;;;;;;4920630;29;20115;-81
2023/11/05 00:20:47;;;;;;;5.00;0.22;;;9.20;99.90;;;;;;4924120;28;20453;-86
2023/11/05 00:23:13;;;;;;;2.38;0.20;;;9.30;99.90;;;;;;4923182;29;20119;-82
2023/11/05 00:25:39;;;;;;;1.58;0.20;;;9.30;99.90;;;;;;4951053;28;20032;-82
2023/11/05 00:28:05;;;;;;;4.50;0.50;;;9.30;99.90;;;;;;4919332;29;20035;-83
2023/11/05 00:30:31;;;;;;;2.58;0.30;;;9.30;99.90;;;;;;4920706;28;20062;-84
2023/11/05 00:32:57;;;;;;;4.80;0.20;;;9.40;99.90;;;;;;4925979;28;20031;-84
2023/11/05 00:35:22;;;;;;;1.70;0.20;;;9.40;99.90;;;;;;4922825;28;20383;-82
2023/11/05 00:37:48;;;;;;;2.13;0.20;;;9.40;99.90;;;;;;4949640;28;20054;-82
2023/11/05 00:40:14;;;;;;;2.63;0.30;;;9.40;99.90;;;;;;4920025;28;20039;-82
2023/11/05 00:42:40;;;;;;;4.68;0.40;;;9.40;99.90;;;;;;4918476;29;20159;-85
2023/11/05 00:45:08;;;;;;;3.00;0.30;;;9.50;99.90;;;;;;4924030;28;20174;-86
2023/11/05 00:47:34;;;;;;;3.20;0.30;;;9.50;99.90;;;;;;4935057;28;20031;-84
2023/11/05 00:50:00;;;;;;;4.68;0.20;;;9.40;99.90;;;;;;4949967;28;20054;-84
2023/11/05 00:52:25;;;;;;;4.03;0.28;;;9.40;99.90;;;;;;4926349;28;20029;-81
2023/11/05 00:54:51;;;;;;;2.63;0.20;;;9.30;99.90;;;;;;4918043;28;20115;-85
2023/11/05 00:57:17;;;;;;;5.30;0.30;;;9.30;99.90;;;;;;4921501;28;20031;-88
2023/11/05 00:59:43;;;;;;;2.42;0.25;;;9.20;99.90;;;;;;4926213;28;20202;-88
2023/11/05 01:02:09;;;;;;;3.90;0.20;;;9.20;99.90;;;;;;4920114;29;20074;-87
2023/11/05 01:04:35;;;;;;;4.18;0.20;;;9.10;99.90;;;;;;4935491;28;20031;-84
2023/11/05 01:07:01;;;;;;;2.08;0.20;;;9.20;99.90;;;;;;4919237;28;20474;-82
2023/11/05 01:09:27;;;;;;;4.78;0.28;;;9.20;99.90;;;;;;4922484;28;20028;-82
2023/11/05 01:11:52;;;;;;;3.33;0.20;;;9.30;99.90;;;;;;4918774;29;20174;-81
2023/11/05 01:14:18;;;;;;;4.40;0.30;;;9.30;99.90;;;;;;4922293;29;20121;-82
2023/11/05 01:16:44;;;;;;;1.52;0.10;;;9.40;99.90;;;;;;4927565;29;20032;-83
2023/11/05 01:19:10;;;;;;;1.02;0.10;;;9.40;99.90;;;;;;4921237;28;20032;-85
2023/11/05 01:21:35;;;;;;;1.77;0.10;;;9.40;99.90;;;;;;4933382;28;20051;-85
2023/11/05 01:24:01;;;;;;;2.47;0.25;;;9.40;99.90;;;;;;4925839;28;20032;-86
2023/11/05 01:26:27;;;;;;;0.60;0.10;;;9.40;99.90;;;;;;4906111;28;20426;-84
2023/11/05 01:28:52;;;;;;;2.67;0.20;;;9.40;99.90;;;;;;4920157;28;20488;-84
2023/11/05 01:31:18;;;;;;;1.67;0.20;;;9.40;99.90;;;;;;4930008;29;20042;-88
2023/11/05 01:33:44;;;;;;;1.33;0.10;;;9.40;99.90;;;;;;4927867;28;20051;-85
2023/11/05 01:36:10;;;;;;;2.35;0.17;;;9.50;99.90;;;;;;4921689;28;20476;-85
2023/11/05 01:38:35;;;;;;;3.28;0.20;;;9.50;99.90;;;;;;4921020;29;20024;-87
2023/11/05 01:41:01;;;;;;;6.22;0.30;;;9.50;99.90;;;;;;4926869;28;20130;-85
2023/11/05 01:43:27;;;;;;;2.00;0.20;;;9.50;99.90;;;;;;4921388;28;20024;-86
2023/11/05 01:45:53;;;;;;;3.85;0.30;;;9.50;99.90;;;;;;4932930;28;20032;-86
2023/11/05 01:48:19;;;;;;;4.82;0.95;;;9.50;99.90;;;;;;4937631;28;20067;-83
2023/11/05 01:50:45;;;;;;;2.42;0.10;;;9.50;99.90;;;;;;4935924;28;20066;-87
2023/11/05 01:53:11;;;;;;;2.00;0.20;;;9.50;99.90;;;;;;4923511;28;20039;-84
2023/11/05 01:55:37;;;;;;;3.03;0.10;;;9.50;99.90;;;;;;4923434;28;20036;-94
2023/11/05 01:58:03;;;;;;;1.85;0.28;;;9.50;99.90;;;;;;4943566;28;20083;-86
2023/11/05 02:00:30;;;;;;;2.80;0.10;;;9.40;99.90;;;;;;4917196;28;20036;-84
2023/11/05 02:02:57;;;;;;;3.75;0.20;;;9.40;99.90;;;;;;4919631;28;20071;-83
2023/11/05 02:05:23;;;;;;;2.00;0.10;;;9.40;99.90;;;;;;4933025;28;20044;-84
2023/11/05 02:07:49;;;;;;;2.33;0.20;;;9.50;99.90;;;;;;4907699;28;20557;-87
2023/11/05 02:10:15;;;;;;;1.63;0.20;;;9.40;99.90;;;;;;4926014;28;20503;-90
2023/11/05 02:12:56;;;;;;;2.58;0.20;;;9.40;99.90;;;;;;4935549;29;20365;-83
2023/11/05 02:15:22;;;;;;;1.98;0.20;;;9.40;99.90;;;;;;4943202;28;21441;-84
2023/11/05 02:17:48;;;;;;;2.50;0.20;;;9.40;99.90;;;;;;4951553;28;20026;-83
2023/11/05 02:20:14;;;;;;;1.23;0.20;;;9.40;99.90;;;;;;4925508;28;20395;-85
2023/11/05 02:22:41;;;;;;;2.33;0.20;;;9.50;99.90;;;;;;4924526;28;20543;-84
2023/11/05 02:25:06;;;;;;;1.40;0.20;;;9.40;99.90;;;;;;4922749;28;20032;-91
2023/11/05 02:27:33;;;;;;;1.85;0.30;;;9.40;99.90;;;;;;4918062;28;20028;-91
2023/11/05 02:29:58;;;;;;;1.85;0.20;;;9.50;99.90;;;;;;4922034;28;20518;-90
2023/11/05 02:32:24;;;;;;;4.10;0.52;;;9.50;99.90;;;;;;4920775;28;20024;-86
2023/11/05 02:34:49;;;;;;;4.88;0.20;;;9.50;99.90;;;;;;4927120;28;20114;-84
2023/11/05 02:37:15;;;;;;;1.63;0.10;;;9.40;99.90;;;;;;4927554;28;20020;-83
2023/11/05 02:39:41;;;;;;;1.88;0.20;;;9.40;99.90;;;;;;4915587;29;20064;-87
2023/11/05 02:42:07;;;;;;;3.13;0.43;;;9.40;99.90;;;;;;4919420;28;20086;-83
2023/11/05 02:44:33;;;;;;;2.83;0.20;;;9.40;99.90;;;;;;4921495;28;20036;-87
2023/11/05 02:46:58;;;;;;;2.60;0.20;;;9.40;99.90;;;;;;4923936;28;20032;-84
2023/11/05 02:49:24;;;;;;;2.90;0.20;;;9.40;99.90;;;;;;4908965;28;20366;-93
2023/11/05 02:51:52;;;;;;;2.03;0.20;;;9.40;99.90;;;;;;4911365;28;20059;-84
2023/11/05 02:54:18;;;;;;;1.70;0.20;;;9.40;99.90;;;;;;4907569;28;20087;-84
2023/11/05 02:56:43;;;;;;;4.30;0.30;;;9.40;99.90;;;;;;4925394;29;20123;-84
2023/11/05 02:59:15;;;;;;;1.13;0.10;;;9.40;99.90;;;;;;4921864;28;20044;-87
2023/11/05 03:01:41;;;;;;;2.15;0.20;;;9.40;99.90;;;;;;4921979;28;20044;-88
2023/11/05 03:04:07;;;;;;;2.70;0.10;;;9.40;99.90;;;;;;4921407;28;20019;-87
2023/11/05 03:06:32;;;;;;;3.20;0.20;;;9.40;99.90;;;;;;4940479;28;20059;-87
2023/11/05 03:08:59;;;;;;;1.65;0.10;;;9.40;99.90;;;;;;4935475;28;20024;-83
2023/11/05 03:11:25;;;;;;;2.63;0.10;;;9.30;99.90;;;;;;4925948;29;20031;-87
2023/11/05 03:13:50;;;;;;;0.68;0.10;;;9.40;99.90;;;;;;4906530;28;20031;-86
2023/11/05 03:16:16;;;;;;;2.45;0.52;;;9.40;99.90;;;;;;4927439;28;20073;-87
2023/11/05 03:18:41;;;;;;;1.70;0.35;;;9.30;99.90;;;;;;4927757;28;20040;-87
2023/11/05 03:21:07;;;;;;;1.35;0.10;;;9.30;99.90;;;;;;4938476;28;20057;-84
2023/11/05 03:23:33;;;;;;;1.00;0.10;;;9.30;99.90;;;;;;4909409;28;20369;-88
2023/11/05 03:25:59;;;;;;;0.50;0.10;;;9.30;99.90;;;;;;4938791;28;20035;-83
2023/11/05 03:28:24;;;;;;;1.15;0.10;;;9.30;99.90;;;;;;4921263;28;20170;-89
2023/11/05 03:30:50;;;;;;;1.45;0.10;;;9.30;99.90;;;;;;4924407;28;20511;-88
2023/11/05 03:33:15;;;;;;;1.52;0.10;;;9.30;99.90;;;;;;4930478;28;20078;-86
2023/11/05 03:35:41;;;;;;;0.95;0.10;;;9.30;99.90;;;;;;4928532;28;20038;-89
2023/11/05 03:38:07;;;;;;;1.13;0.10;;;9.30;99.90;;;;;;4925079;28;20085;-84
2023/11/05 03:40:32;;;;;;;1.15;0.00;;;9.30;99.90;;;;;;4925681;29;20190;-89
2023/11/05 03:42:58;;;;;;;2.53;0.10;;;9.30;99.90;;;;;;4904657;28;20028;-89
2023/11/05 03:45:23;;;;;;;0.70;0.20;;;9.30;99.90;;;;;;4937872;28;20052;-84
2023/11/05 03:47:49;;;;;;;0.75;0.10;;;9.30;99.90;;;;;;4926979;28;20467;-93
2023/11/05 03:50:15;;;;;;;0.57;0.00;;;9.30;99.90;;;;;;4911269;28;20077;-85
2023/11/05 03:52:40;;;;;;;0.40;0.00;;;9.30;99.90;;;;;;4921479;28;20161;-88
2023/11/05 03:55:07;;;;;;;0.57;0.00;;;9.30;99.90;;;;;;4927190;29;20499;-82
2023/11/05 03:57:32;;;;;;;1.02;0.00;;;9.30;99.90;;;;;;4921751;28;20062;-89
2023/11/05 03:59:58;;;;;;;0.32;0.00;;;9.30;99.90;;;;;;4921942;28;20676;-86
2023/11/05 04:02:23;;;;;;;0.45;0.00;;;9.30;99.90;;;;;;4921822;28;20066;-84
2023/11/05 04:04:51;;;;;;;0.22;0.00;;;9.30;99.90;;;;;;4922718;29;20028;-87
2023/11/05 04:07:17;;;;;;;0.30;0.00;;;9.30;99.90;;;;;;4909762;28;20036;-87
2023/11/05 04:09:42;;;;;;;0.60;0.10;;;9.30;99.90;;;;;;4923282;29;20082;-88
2023/11/05 04:12:08;;;;;;;0.75;0.00;;;9.30;99.90;;;;;;4926776;28;20484;-83
2023/11/05 04:14:34;;;;;;;0.25;0.00;;;9.30;99.90;;;;;;4940965;28;20020;-84
2023/11/05 04:17:00;;;;;;;0.40;0.00;;;9.30;99.90;;;;;;4939016;28;20032;-88
2023/11/05 04:19:25;;;;;;;0.20;0.00;;;9.30;99.90;;;;;;4950589;28;20028;-89
2023/11/05 04:21:51;;;;;;;1.33;0.05;;;9.30;99.90;;;;;;4907347;28;20163;-91
2023/11/05 04:24:17;;;;;;;0.90;0.10;;;9.30;99.90;;;;;;4921221;29;20119;-83
2023/11/05 04:26:43;;;;;;;0.75;0.10;;;9.30;99.90;;;;;;4928532;28;20115;-87
2023/11/05 04:29:08;;;;;;;0.55;0.00;;;9.30;99.90;;;;;;4936048;28;20028;-86
2023/11/05 04:31:34;;;;;;;1.15;0.00;;;9.30;99.90;;;;;;4923498;28;20495;-84
2023/11/05 04:34:01;;;;;;;1.40;0.20;;;9.30;99.90;;;;;;4924983;28;20024;-86
2023/11/05 04:36:27;;;;;;;0.50;0.10;;;9.40;99.90;;;;;;4926305;28;20044;-83
2023/11/05 04:38:53;;;;;;;1.17;0.10;;;9.40;99.90;;;;;;4923874;29;20043;-81
2023/11/05 04:41:22;;;;;;;0.43;0.10;;;9.40;99.90;;;;;;4926126;28;20044;-82
2023/11/05 04:43:48;;;;;;;0.53;0.10;;;9.40;99.90;;;;;;4923718;29;20030;-84
2023/11/05 04:46:13;;;;;;;1.08;0.03;;;9.40;99.90;;;;;;4922473;29;20291;-83
2023/11/05 04:48:39;;;;;;;0.57;0.00;;;9.40;99.90;;;;;;4921380;28;20090;-86
2023/11/05 04:51:09;;;;;;;0.93;0.10;;;9.40;99.90;;;;;;4927892;28;20023;-86
2023/11/05 04:53:35;;;;;;;1.35;0.45;;;9.40;99.90;;;;;;4925106;29;20032;-89
2023/11/05 04:56:00;;;;;;;1.63;0.00;;;9.40;99.90;;;;;;4927340;28;20051;-86
2023/11/05 04:58:26;;;;;;;1.98;0.10;;;9.40;99.90;;;;;;4935479;28;20297;-86
2023/11/05 05:00:52;;;;;;;1.38;0.10;;;9.40;99.90;;;;;;4921496;29;20039;-88
2023/11/05 05:03:18;;;;;;;0.47;0.10;;;9.40;99.90;;;;;;4928344;29;20118;-87
2023/11/05 05:05:44;;;;;;;0.30;0.00;;;9.50;99.90;;;;;;4926509;28;20090;-84
2023/11/05 05:08:10;;;;;;;0.90;0.25;;;9.50;99.90;;;;;;4927086;28;20035;-86
2023/11/05 05:10:35;;;;;;;0.40;0.00;;;9.50;99.90;;;;;;4922631;29;20039;-89
2023/11/05 05:13:01;;;;;;;0.50;0.03;;;9.50;99.90;;;;;;4920885;28;20024;-88
2023/11/05 05:15:27;;;;;;;1.55;0.10;;;9.50;99.90;;;;;;4919647;29;20027;-83
2023/11/05 05:17:53;;;;;;;0.40;0.00;;;9.50;99.90;;;;;;4922687;29;20039;-87
2023/11/05 05:20:19;;;;;;;1.40;0.00;;;9.50;99.90;;;;;;4924712;28;20898;-81
2023/11/05 05:22:44;;;;;;;0.30;0.00;;;9.50;99.90;;;;;;4937251;28;20040;-84
2023/11/05 05:25:10;;;;;;;0.40;0.00;;;9.50;99.90;;;;;;4928555;28;20039;-84
2023/11/05 05:27:36;;;;;;;0.60;0.00;;;9.60;99.90;;;;;;4919159;28;20429;-87
2023/11/05 05:30:03;;;;;;;0.20;0.00;;;9.50;99.90;;;;;;4920472;28;20058;-83
2023/11/05 05:32:29;;;;;;;0.52;0.00;;;9.50;99.90;;;;;;4933662;29;20028;-82
2023/11/05 05:34:54;;;;;;;0.30;0.00;;;9.50;99.90;;;;;;4907954;28;20035;-87
2023/11/05 05:37:20;;;;;;;0.70;0.00;;;9.50;99.90;;;;;;4924828;28;20031;-87
2023/11/05 05:39:47;;;;;;;0.55;0.00;;;9.50;99.90;;;;;;4909607;28;20035;-88
2023/11/05 05:42:13;;;;;;;0.80;0.08;;;9.60;99.90;;;;;;4906303;28;20047;-85
2023/11/05 05:44:38;;;;;;;0.22;0.00;;;9.60;99.90;;;;;;4924331;28;21673;-84
2023/11/05 05:47:04;;;;;;;1.48;0.00;;;9.50;99.90;;;;;;4925454;28;20046;-86
2023/11/05 05:49:30;;;;;;;0.20;0.00;;;9.50;99.90;;;;;;4953536;28;20032;-89
2023/11/05 05:51:55;;;;;;;0.40;0.00;;;9.50;99.90;;;;;;4925445;28;20119;-85
2023/11/05 05:54:21;;;;;;;0.80;0.00;;;9.60;99.90;;;;;;4924987;29;20031;-84
2023/11/05 05:56:48;;;;;;;1.10;0.10;;;9.60;99.90;;;;;;4923698;29;20509;-88
2023/11/05 05:59:14;;;;;;;0.73;0.10;;;9.50;99.90;;;;;;4919975;28;20048;-88
2023/11/05 06:01:39;;;;;;;0.80;0.10;;;9.60;99.90;;;;;;4923996;28;20095;-84
2023/11/05 06:04:07;;;;;;;1.67;0.00;;;9.60;99.90;;;;;;4905371;28;20065;-85
2023/11/05 06:06:34;;;;;;;0.40;0.00;;;9.60;99.90;;;;;;4919876;28;20079;-84
2023/11/05 06:08:59;;;;;;;1.77;0.38;;;9.60;99.90;;;;;;4920701;28;20028;-88
2023/11/05 06:11:25;;;;;;;0.65;0.00;;;9.60;99.90;;;;;;4909277;28;20046;-87
2023/11/05 06:13:51;;;;;;;1.25;0.10;;;9.70;99.90;;;;;;4911120;29;20040;-86
2023/11/05 06:16:17;;;;;;;0.85;0.00;;;9.60;99.90;;;;;;4921581;28;20074;-87
2023/11/05 06:21:36;;;;;;;0.10;0.00;;;9.60;99.90;;;;;;4929228;28;20080;-87
2023/11/05 06:24:03;;;;;;;0.40;0.00;;;9.60;99.90;;;;;;4905468;29;20060;-87
2023/11/05 06:26:29;;;;;;;1.48;0.65;;;9.60;99.90;;;;;;4918095;28;20036;-83
2023/11/05 06:28:54;;;;;;;0.80;0.10;;;9.70;99.90;;;;;;4925250;29;21975;-84
2023/11/05 06:31:20;;;;;;;0.40;0.10;;;9.70;99.90;;;;;;4927654;28;20102;-84
2023/11/05 06:33:46;;;;;;;0.63;0.05;;;9.70;99.90;;;;;;4954796;28;20130;-84
2023/11/05 06:36:12;;;;;;;1.30;0.00;;;9.70;99.90;;;;;;4908409;28;20231;-84
2023/11/05 06:38:37;;;;;;;0.60;0.03;;;9.70;99.90;;;;;;4926309;29;20043;-82
2023/11/05 06:41:03;;;;;;;0.60;0.10;;;9.70;99.90;;;;;;4908602;28;20047;-83
2023/11/05 06:43:29;;;;;;;0.98;0.00;;;9.70;99.90;;;;;;4925348;29;20044;-84
2023/11/05 06:45:54;;;;;;;1.13;0.05;;;9.70;99.90;;;;;;4928816;28;20426;-85
2023/11/05 06:48:20;;;;;;;0.60;0.08;;;9.70;99.90;;;;;;4939578;28;20055;-90
2023/11/05 06:50:46;;;;;;;0.10;0.00;;;9.70;99.90;;;;;;4925021;28;20123;-85
2023/11/05 06:53:12;;;;;;;1.13;0.10;;;9.70;99.90;;;;;;4953763;28;20060;-86
2023/11/05 06:55:38;;;;;;;0.98;0.10;;;9.80;99.90;;;;;;4920428;28;20079;-85
2023/11/05 06:58:04;;;;;;;0.77;0.10;;;9.80;99.90;;;;;;4924587;29;20031;-88
2023/11/05 07:00:30;;;;;;;0.88;0.00;;;9.80;99.90;;;;;;4926849;28;20105;-85
2023/11/05 07:02:56;;;;;;;0.50;0.10;;;9.80;99.90;;;;;;4927246;28;20036;-84
2023/11/05 07:05:21;;;;;;;3.03;0.10;;;9.90;99.90;;;;;;4955559;28;20024;-86
2023/11/05 07:07:47;;;;;;;0.30;0.10;;;9.90;99.90;;;;;;4950739;28;20028;-87
2023/11/05 07:10:13;;;;;;;1.48;0.20;;;9.90;99.90;;;;;;4941409;28;20028;-86
2023/11/05 07:12:41;;;;;;;0.95;0.10;;;10.00;99.90;;;;;;4954374;28;20031;-85
2023/11/05 07:15:09;;;;;;;0.73;0.10;;;10.00;99.90;;;;;;4925300;28;20731;-87
2023/11/05 07:17:35;;;;;;;0.40;0.10;;;10.00;99.90;;;;;;4910733;28;20024;-86
2023/11/05 07:20:02;;;;;;;1.52;0.10;;;10.10;99.90;;;;;;4911334;29;20480;-88
2023/11/05 07:22:27;;;;;;;1.48;0.20;;;10.10;99.90;;;;;;4923917;28;20407;-83
2023/11/05 07:24:53;;;;;;;1.35;0.20;;;10.10;99.90;;;;;;4943560;28;20024;-86
2023/11/05 07:27:19;;;;;;;0.88;0.17;;;10.10;99.90;;;;;;4928481;28;20559;-85
2023/11/05 07:29:46;;;;;;;1.25;0.10;;;10.10;99.90;;;;;;4925098;28;20032;-88
2023/11/05 07:32:12;;;;;;;1.15;0.10;;;10.20;99.90;;;;;;4909801;28;20032;-87
2023/11/05 07:34:37;;;;;;;1.58;0.10;;;10.20;99.90;;;;;;4923043;28;20090;-86
2023/11/05 07:37:03;;;;;;;1.60;0.20;;;10.30;99.90;;;;;;4925498;29;20047;-87
2023/11/05 07:39:29;;;;;;;0.50;0.10;;;10.30;99.90;;;;;;4925798;28;20058;-88
2023/11/05 07:41:55;;;;;;;0.60;0.10;;;10.40;99.90;;;;;;4907855;28;20048;-88
2023/11/05 07:44:21;;;;;;;1.33;0.10;;;10.30;99.90;;;;;;4909149;28;20032;-87
2023/11/05 07:46:47;;;;;;;1.95;0.20;;;10.40;99.90;;;;;;4955659;28;20059;-83
2023/11/05 07:49:12;;;;;;;1.15;0.15;;;10.40;99.90;;;;;;4939130;28;20032;-85
2023/11/05 07:51:38;;;;;;;1.15;0.20;;;10.30;99.90;;;;;;4943260;28;20040;-86
2023/11/05 07:54:05;;;;;;;1.15;0.20;;;10.30;99.90;;;;;;4926366;28;20036;-88
2023/11/05 07:56:30;;;;;;;1.52;0.10;;;10.30;99.90;;;;;;4923470;28;20043;-86
2023/11/05 07:58:56;;;;;;;1.77;0.20;;;10.30;99.90;;;;;;4930676;28;20044;-84
2023/11/05 08:01:22;;;;;;;1.08;0.20;;;10.30;99.90;;;;;;4937486;28;20068;-84
2023/11/05 08:03:49;;;;;;;1.25;0.20;;;10.30;99.90;;;;;;4924359;28;20063;-86
2023/11/05 08:06:15;;;;;;;0.85;0.10;;;10.30;99.90;;;;;;4924915;28;20028;-88
2023/11/05 08:08:41;;;;;;;0.70;0.20;;;10.30;99.90;;;;;;4920075;28;20102;-86
2023/11/05 08:11:09;;;;;;;0.50;0.10;;;10.30;99.90;;;;;;4944464;28;20034;-86
2023/11/05 08:13:35;;;;;;;0.73;0.20;;;10.30;99.90;;;;;;4910059;28;20047;-88
2023/11/05 08:16:02;;;;;;;0.82;0.13;;;10.30;99.90;;;;;;4925221;28;20027;-87
2023/11/05 08:18:28;;;;;;;1.45;0.20;;;10.30;99.90;;;;;;4928024;29;20039;-85
2023/11/05 08:20:53;;;;;;;1.90;0.20;;;10.30;99.90;;;;;;4937562;28;20043;-87
2023/11/05 08:23:19;;;;;;;2.65;0.20;;;10.40;99.90;;;;;;4938105;28;20054;-81
2023/11/05 08:25:45;;;;;;;1.35;0.30;;;10.40;99.90;;;;;;4928294;28;20028;-86
2023/11/05 08:28:10;;;;;;;1.52;0.20;;;10.40;99.90;;;;;;4944966;28;20123;-87
2023/11/05 08:30:36;;;;;;;2.15;0.20;;;10.50;99.90;;;;;;4924803;28;20038;-86
2023/11/05 08:33:02;;;;;;;2.33;0.40;;;10.40;99.90;;;;;;4938741;28;20086;-87
2023/11/05 08:35:27;;;;;;;2.42;0.40;;;10.50;99.90;;;;;;4908164;28;20035;-86
2023/11/05 08:37:53;;;;;;;1.67;0.30;;;10.50;99.90;;;;;;4928082;29;20419;-87
2023/11/05 08:40:19;;;;;;;1.73;0.40;;;10.50;99.90;;;;;;4925616;28;20031;-87
2023/11/05 08:42:45;;;;;;;2.20;0.47;;;10.50;99.90;;;;;;4929981;29;20446;-89
2023/11/05 08:45:13;;;;;;;2.97;0.30;;;10.50;99.90;;;;;;4941427;28;20125;-89
2023/11/05 08:47:40;;;;;;;2.25;0.30;;;10.60;99.90;;;;;;4926879;29;20035;-89
2023/11/05 08:50:07;;;;;;;1.60;0.35;;;10.60;99.90;;;;;;4924407;28;20487;-88
2023/11/05 08:52:33;;;;;;;1.50;0.32;;;10.60;99.90;;;;;;4925247;28;20040;-89
2023/11/05 08:55:00;;;;;;;1.73;0.30;;;10.60;99.90;;;;;;4924171;29;20034;-90
2023/11/05 08:57:26;;;;;;;3.05;0.47;;;10.70;99.90;;;;;;4934122;28;20055;-89
2023/11/05 08:59:52;;;;;;;1.95;0.50;;;10.70;99.90;;;;;;4916958;28;20099;-86
2023/11/05 09:02:18;;;;;;;2.03;0.35;;;10.70;99.90;;;;;;4937708;28;20146;-87
2023/11/05 09:04:43;;;;;;;1.75;0.50;;;10.80;99.90;;;;;;4897579;29;20169;-85
2023/11/05 09:07:10;;;;;;;1.02;0.40;;;10.90;99.90;;;;;;4932588;28;20090;-86
2023/11/05 09:09:37;;;;;;;2.53;0.65;;;10.90;99.90;;;;;;4920287;28;20028;-87
2023/11/05 09:12:03;;;;;;;2.03;0.43;;;10.90;99.90;;;;;;4916766;28;20496;-84
2023/11/05 09:14:29;;;;;;;1.60;0.40;;;10.90;99.90;;;;;;4901827;29;20028;-87
2023/11/05 09:16:55;;;;;;;2.72;0.40;;;10.90;99.90;;;;;;4916455;29;20086;-86
2023/11/05 09:19:21;;;;;;;3.08;0.40;;;10.90;99.90;;;;;;4921521;28;20500;-84
2023/11/05 09:21:47;;;;;;;4.47;0.40;;;11.00;99.90;;;;;;4920681;28;20082;-88
2023/11/05 09:24:12;;;;;;;1.90;0.20;;;11.00;99.90;;;;;;4923077;28;20068;-87
2023/11/05 09:26:38;;;;;;;2.83;0.45;;;11.10;99.90;;;;;;4903094;28;20392;-85
2023/11/05 09:29:04;;;;;;;2.45;0.20;;;11.20;99.90;;;;;;4938082;28;20051;-87
2023/11/05 09:31:30;;;;;;;2.10;0.20;;;11.10;99.90;;;;;;4917557;28;20536;-87
2023/11/05 09:33:56;;;;;;;2.97;0.20;;;11.10;99.90;;;;;;4945999;28;20044;-86
2023/11/05 09:36:22;;;;;;;0.88;0.10;;;11.10;99.90;;;;;;4903645;28;20046;-87
2023/11/05 09:38:47;;;;;;;1.67;0.30;;;11.10;99.90;;;;;;4915719;28;20075;-89
2023/11/05 09:41:17;;;;;;;2.33;0.30;;;11.10;99.90;;;;;;4901624;28;20051;-87
2023/11/05 09:43:50;;;;;;;2.08;0.30;;;11.10;99.90;;;;;;4915137;28;20035;-87
2023/11/05 09:46:16;;;;;;;2.45;0.30;;;11.10;99.90;;;;;;4931884;29;20071;-86
2023/11/05 09:48:42;;;;;;;1.85;0.30;;;11.10;99.90;;;;;;4923703;28;20071;-86
2023/11/05 09:51:12;;;;;;;2.30;0.45;;;11.10;99.90;;;;;;4902173;28;20028;-87
2023/11/05 09:53:37;;;;;;;1.67;0.38;;;11.20;99.90;;;;;;4937023;28;20038;-86
2023/11/05 09:56:04;;;;;;;1.98;0.22;;;11.20;99.90;;;;;;4938279;28;20043;-86
2023/11/05 09:58:30;;;;;;;1.77;0.30;;;11.20;99.90;;;;;;4937806;28;20036;-88
2023/11/05 10:00:56;;;;;;;2.92;0.35;;;11.20;99.90;;;;;;4922286;28;20035;-86
2023/11/05 10:03:25;;;;;;;3.85;0.30;;;11.20;99.90;;;;;;4948434;28;20249;-87
2023/11/05 10:05:53;;;;;;;4.35;0.50;;;11.30;99.90;;;;;;4920046;28;20035;-89
2023/11/05 10:08:22;;;;;;;3.83;0.60;;;11.30;99.90;;;;;;4903547;28;20028;-85
2023/11/05 10:10:48;;;;;;;2.42;0.40;;;11.30;99.90;;;;;;4931450;28;20043;-88
2023/11/05 10:13:16;;;;;;;2.78;0.50;;;11.20;99.90;;;;;;4919839;28;20040;-88
2023/11/05 10:15:42;;;;;;;2.85;0.65;;;11.20;99.90;;;;;;4921200;28;20185;-89
2023/11/05 10:18:18;;;;;;;2.45;0.40;;;11.20;99.90;;;;;;4907637;28;20023;-86
2023/11/05 10:20:52;;;;;;;3.70;0.40;;;11.20;99.90;;;;;;4933396;28;20435;-86
2023/11/05 10:23:19;;;;;;;2.38;0.50;;;11.10;99.90;;;;;;4945992;28;20063;-87
2023/11/05 10:25:50;;;;;;;3.55;0.75;;;11.10;99.90;;;;;;4936754;28;20082;-87
2023/11/05 10:28:20;;;;;;;2.30;0.50;;;11.10;99.90;;;;;;4917733;29;20035;-87
2023/11/05 10:30:47;;;;;;;3.90;0.93;;;11.10;99.90;;;;;;4928286;28;20032;-88
2023/11/05 10:33:14;;;;;;;3.38;0.68;;;11.10;99.90;;;;;;4925178;28;20047;-88
2023/11/05 10:35:40;;;;;;;4.38;0.95;;;11.10;99.90;;;;;;4938220;28;20380;-88
2023/11/05 10:38:08;;;;;;;3.47;0.50;;;11.10;99.90;;;;;;4920061;29;20028;-88
2023/11/05 10:40:34;;;;;;;3.08;0.40;;;11.00;99.90;;;;;;4913698;28;20100;-86
2023/11/05 10:43:00;;;;;;;2.30;0.60;;;11.10;99.90;;;;;;4920515;28;20170;-85
2023/11/05 10:45:27;;;;;;;2.60;0.52;;;11.00;99.90;;;;;;4919848;28;20416;-90
2023/11/05 10:47:53;;;;;;;2.42;0.95;;;10.90;99.90;;;;;;4919596;28;20079;-90
2023/11/05 10:50:28;;;;;;;1.77;0.57;;;11.00;99.90;;;;;;4925616;28;20588;-88
2023/11/05 10:52:57;;;;;;;2.13;0.40;;;10.90;99.90;;;;;;4922241;28;20027;-90
2023/11/05 10:55:37;;;;;;;2.13;0.77;;;10.90;99.90;;;;;;4920328;28;20028;-89
2023/11/05 10:58:06;;;;;;;3.20;0.50;;;11.00;99.90;;;;;;4902348;29;20371;-88
2023/11/05 11:00:35;;;;;;;3.05;0.65;;;11.00;99.90;;;;;;4918747;28;20055;-92
2023/11/05 11:03:09;;;;;;;2.03;0.40;;;11.00;99.90;;;;;;4919577;28;20162;-87
2023/11/05 11:05:45;;;;;;;1.65;0.40;;;10.90;99.90;;;;;;4899781;28;20474;-86
2023/11/05 11:08:18;;;;;;;1.38;0.40;;;11.00;99.90;;;;;;4915523;28;20038;-88
2023/11/05 11:10:49;;;;;;;1.30;0.32;;;11.00;99.90;;;;;;4932826;28;20056;-87
2023/11/05 11:13:38;;;;;;;2.40;0.50;;;10.90;99.90;;;;;;4914931;29;20127;-89
2023/11/05 11:16:08;;;;;;;2.22;0.40;;;10.90;99.90;;;;;;4908092;28;20065;-87
2023/11/05 11:18:36;;;;;;;2.55;0.68;;;10.90;99.90;;;;;;4908565;28;20044;-89
2023/11/05 11:21:02;;;;;;;2.38;0.70;;;10.80;99.90;;;;;;4920532;29;20478;-90
2023/11/05 11:23:28;;;;;;;1.73;0.50;;;10.80;99.90;;;;;;4910894;29;20032;-86
2023/11/05 11:26:13;;;;;;;3.10;0.65;;;10.80;99.90;;;;;;4941633;28;20121;-86
2023/11/05 11:28:40;;;;;;;4.97;0.95;;;10.90;99.90;;;;;;4930000;28;20172;-93
2023/11/05 11:31:05;;;;;;;2.50;1.05;;;10.80;99.90;;;;;;4935499;28;20037;-86
2023/11/05 11:33:31;;;;;;;6.00;1.30;;;10.90;99.90;;;;;;4926528;28;20039;-86
2023/11/05 11:36:01;;;;;;;4.18;1.10;;;10.90;99.90;;;;;;4924925;28;20043;-87
2023/11/05 11:38:27;;;;;;;3.38;1.20;;;10.90;99.90;;;;;;4912649;29;20092;-92
2023/11/05 11:40:54;;;;;;;9.43;1.98;;;11.00;99.90;;;;;;4921861;28;20122;-87
2023/11/05 11:43:21;;;;;;;6.32;1.88;;;10.90;99.90;;;;;;4924212;29;20069;-88
2023/11/05 11:45:48;;;;;;;3.83;1.02;;;11.00;99.90;;;;;;4904869;28;20086;-84
2023/11/05 11:48:15;;;;;;;7.85;1.45;;;10.90;99.90;;;;;;4939649;28;20035;-87
2023/11/05 11:51:03;;;;;;;7.53;1.70;;;11.00;99.90;;;;;;4919633;29;20031;-89
2023/11/05 11:53:34;;;;;;;9.00;2.22;;;11.00;99.90;;;;;;4917851;29;20399;-87
2023/11/05 11:56:00;;;;;;;8.43;1.90;;;11.00;99.90;;;;;;4919446;29;20039;-88
2023/11/05 11:58:27;;;;;;;8.10;1.63;;;11.00;99.90;;;;;;4940282;28;20036;-86
2023/11/05 12:00:54;;;;;;;8.00;1.80;;;11.10;99.90;;;;;;4920473;28;20028;-87
2023/11/05 12:03:21;;;;;;;11.18;1.67;;;11.10;99.90;;;;;;4922396;28;20046;-88
2023/11/05 12:05:46;;;;;;;6.85;1.42;;;11.10;99.90;;;;;;4908393;29;20028;-86
2023/11/05 12:08:13;;;;;;;10.88;1.55;;;11.20;99.90;;;;;;4919174;28;20028;-86
2023/11/05 12:10:41;;;;;;;11.63;1.90;;;11.30;99.90;;;;;;4935395;29;20105;-86
2023/11/05 12:13:07;;;;;;;9.75;1.90;;;11.40;99.90;;;;;;4907525;28;20024;-88
2023/11/05 12:15:36;;;;;;;7.65;1.92;;;11.50;99.90;;;;;;4910145;28;20392;-88
2023/11/05 12:18:03;;;;;;;8.67;1.30;;;11.70;99.90;;;;;;4917912;28;20028;-85
2023/11/05 12:20:29;;;;;;;11.93;1.95;;;11.70;99.90;;;;;;4933141;28;20292;-86
2023/11/05 12:22:55;;;;;;;11.73;1.83;;;11.80;99.90;;;;;;4924731;28;20044;-85
2023/11/05 12:25:21;;;;;;;7.95;1.08;;;11.80;99.90;;;;;;4926517;28;20069;-91
2023/11/05 12:27:53;;;;;;;5.65;0.73;;;11.90;99.90;;;;;;4926350;28;20028;-88
2023/11/05 12:30:20;;;;;;;8.32;0.98;;;11.90;99.90;;;;;;4934624;28;20036;-86
2023/11/05 12:32:48;;;;;;;4.03;0.80;;;11.90;99.90;;;;;;4917498;28;20047;-89
2023/11/05 12:35:14;;;;;;;5.82;0.70;;;11.80;99.90;;;;;;4921382;28;20479;-89
2023/11/05 12:37:39;;;;;;;5.20;0.50;;;11.90;99.90;;;;;;4921913;29;20035;-90
2023/11/05 12:40:06;;;;;;;4.75;0.65;;;11.80;99.90;;;;;;4899522;28;20031;-85
2023/11/05 12:42:33;;;;;;;3.45;0.40;;;11.90;99.90;;;;;;4929155;29;20044;-88
2023/11/05 12:44:59;;;;;;;4.97;0.50;;;11.70;99.90;;;;;;4914908;29;20472;-88
2023/11/05 12:47:26;;;;;;;5.38;0.50;;;11.50;99.90;;;;;;4923514;28;20031;-89
2023/11/05 12:49:52;;;;;;;2.20;0.40;;;11.50;99.90;;;;;;4924908;29;20209;-86
2023/11/05 12:52:18;;;;;;;3.00;0.85;;;11.50;99.90;;;;;;4918985;28;20043;-87